createdAt,value
2024-02-02T00:01:33.994Z,97986.06
2024-02-02T00:04:01.845Z,97989.77
2024-02-02T00:06:30.525Z,97988.97
2024-02-02T00:08:58.386Z,97990.29
2024-02-02T00:11:26.316Z,97981.56
2024-02-02T00:13:54.406Z,97992.64
2024-02-02T00:16:23.116Z,97992.37
2024-02-02T00:18:51.212Z,97989.72
2024-02-02T00:21:19.411Z,97993.69
2024-02-02T00:23:47.305Z,97985.70
2024-02-02T00:26:15.265Z,97990.20
2024-02-02T00:28:43.465Z,97990.73
2024-02-02T00:31:11.483Z,97986.23
2024-02-02T00:33:39.627Z,97981.24
2024-02-02T00:36:08.170Z,97984.16
2024-02-02T00:38:36.022Z,97990.77
2024-02-02T00:41:04.829Z,97994.22
2024-02-02T00:43:32.890Z,97997.91
2024-02-02T00:46:00.714Z,97989.72
2024-02-02T00:48:29.359Z,97991.30
2024-02-02T00:50:57.493Z,97989.67
2024-02-02T00:53:25.465Z,97991.48
2024-02-02T00:55:53.404Z,97989.83
2024-02-02T00:58:21.382Z,97989.25
2024-02-02T01:00:49.448Z,97989.73
2024-02-02T01:03:17.680Z,97980.20
2024-02-02T01:05:45.696Z,97990.74
2024-02-02T01:08:13.676Z,97993.64
2024-02-02T01:10:41.586Z,97996.23
2024-02-02T01:13:09.885Z,97993.05
2024-02-02T01:15:37.982Z,97986.14
2024-02-02T01:18:08.731Z,97987.23
2024-02-02T01:20:36.915Z,97984.30
2024-02-02T01:23:05.294Z,97983.55
2024-02-02T01:25:33.567Z,97974.55
2024-02-02T01:28:01.778Z,97973.53
2024-02-02T01:30:31.092Z,97973.28
2024-02-02T01:32:59.078Z,97979.36
2024-02-02T01:35:27.342Z,97975.40
2024-02-02T01:37:55.177Z,97978.61
2024-02-02T01:40:23.258Z,97974.39
2024-02-02T01:42:51.655Z,97984.17
2024-02-02T01:45:19.670Z,97978.36
2024-02-02T01:47:47.806Z,97980.48
2024-02-02T01:50:15.696Z,97987.89
2024-02-02T01:52:43.660Z,97986.86
2024-02-02T01:55:11.875Z,97992.16
2024-02-02T01:57:41.094Z,97992.16
2024-02-02T02:00:12.133Z,97990.58
2024-02-02T02:02:40.385Z,97990.05
2024-02-02T02:05:10.349Z,97998.52
2024-02-02T02:07:40.175Z,98006.45
2024-02-02T02:10:09.718Z,97995.87
2024-02-02T02:12:37.777Z,97994.02
2024-02-02T02:15:06.516Z,97988.46
2024-02-02T02:17:34.340Z,97984.17
2024-02-02T02:20:02.465Z,97989.42
2024-02-02T02:22:30.488Z,97987.78
2024-02-02T02:24:58.187Z,97989.09
2024-02-02T02:27:26.300Z,97989.03
2024-02-02T02:29:54.452Z,97979.41
2024-02-02T02:32:22.456Z,97982.54
2024-02-02T02:34:50.429Z,97985.13
2024-02-02T02:37:18.631Z,97986.45
2024-02-02T02:39:46.418Z,97990.73
2024-02-02T02:42:14.772Z,97993.91
2024-02-02T02:44:42.704Z,97986.28
2024-02-02T02:47:11.803Z,97975.92
2024-02-02T02:49:39.954Z,97975.08
2024-02-02T02:52:07.832Z,97979.03
2024-02-02T02:54:35.903Z,97978.71
2024-02-02T02:57:04.575Z,97991.93
2024-02-02T02:59:33.072Z,98010.44
2024-02-02T03:02:01.157Z,98030.81
2024-02-02T03:04:29.553Z,98025.00
2024-02-02T03:06:57.772Z,98020.81
2024-02-02T03:09:25.800Z,98027.70
2024-02-02T03:11:54.252Z,98027.17
2024-02-02T03:14:22.125Z,98031.41
2024-02-02T03:16:50.622Z,98036.22
2024-02-02T03:19:19.337Z,98038.34
2024-02-02T03:21:47.285Z,98034.68
2024-02-02T03:24:15.271Z,98027.27
2024-02-02T03:26:43.133Z,98029.09
2024-02-02T03:29:10.945Z,98023.78
2024-02-02T03:31:40.005Z,98021.66
2024-02-02T03:34:07.946Z,98028.44
2024-02-02T03:36:36.386Z,98051.17
2024-02-02T03:39:04.372Z,98055.41
2024-02-02T03:41:32.410Z,98046.20
2024-02-02T03:44:00.212Z,98041.19
2024-02-02T03:46:28.285Z,98027.44
2024-02-02T03:48:58.415Z,98001.00
2024-02-02T03:51:26.504Z,97999.34
2024-02-02T03:53:54.800Z,98004.73
2024-02-02T03:56:23.992Z,98005.20
2024-02-02T03:58:51.903Z,98006.25
2024-02-02T04:01:21.247Z,98007.05
2024-02-02T04:03:49.452Z,98010.77
2024-02-02T04:06:17.623Z,98015.58
2024-02-02T04:08:45.763Z,98024.88
2024-02-02T04:11:13.710Z,98037.90
2024-02-02T04:13:42.947Z,98049.10
2024-02-02T04:16:10.871Z,98051.55
2024-02-02T04:18:39.033Z,98052.39
2024-02-02T04:21:07.245Z,98059.55
2024-02-02T04:23:35.262Z,98067.80
2024-02-02T04:26:05.780Z,98068.13
2024-02-02T04:28:33.976Z,98064.22
2024-02-02T04:31:01.934Z,98067.66
2024-02-02T04:33:29.905Z,98053.38
2024-02-02T04:35:58.043Z,98061.31
2024-02-02T04:38:27.678Z,98051.27
2024-02-02T04:40:56.266Z,98044.38
2024-02-02T04:43:24.236Z,98053.38
2024-02-02T04:45:52.158Z,98054.20
2024-02-02T04:48:20.389Z,98056.85
2024-02-02T04:50:48.476Z,98057.87
2024-02-02T04:53:16.472Z,98066.86
2024-02-02T04:55:44.673Z,98061.52
2024-02-02T04:58:12.658Z,98061.77
2024-02-02T05:00:40.746Z,98073.37
2024-02-02T05:03:09.171Z,98083.16
2024-02-02T05:05:38.268Z,98081.61
2024-02-02T05:08:08.110Z,98080.81
2024-02-02T05:10:36.197Z,98086.12
2024-02-02T05:13:04.790Z,98091.19
2024-02-02T05:15:33.259Z,98097.02
2024-02-02T05:18:01.555Z,98096.55
2024-02-02T05:20:30.060Z,98098.17
2024-02-02T05:22:58.010Z,98104.02
2024-02-02T05:25:26.476Z,98105.33
2024-02-02T05:27:55.506Z,98112.22
2024-02-02T05:30:23.498Z,98109.35
2024-02-02T05:32:51.487Z,98115.17
2024-02-02T05:35:19.473Z,98115.97
2024-02-02T05:37:47.477Z,98123.91
2024-02-02T05:40:15.375Z,98134.76
2024-02-02T05:42:44.428Z,98129.99
2024-02-02T05:45:12.636Z,98135.56
2024-02-02T05:47:40.618Z,98134.23
2024-02-02T05:50:09.514Z,98133.69
2024-02-02T05:52:37.363Z,98127.88
2024-02-02T05:55:05.662Z,98128.40
2024-02-02T05:57:33.616Z,98127.30
2024-02-02T06:00:01.568Z,98125.45
2024-02-02T06:02:31.849Z,98132.64
2024-02-02T06:04:59.931Z,98131.31
2024-02-02T06:07:28.036Z,98138.50
2024-02-02T06:09:56.103Z,98144.34
2024-02-02T06:12:25.158Z,98146.47
2024-02-02T06:14:53.258Z,98149.16
2024-02-02T06:17:21.357Z,98148.41
2024-02-02T06:19:49.284Z,98151.61
2024-02-02T06:22:19.193Z,98148.69
2024-02-02T06:24:47.078Z,98151.39
2024-02-02T06:27:15.981Z,98152.51
2024-02-02T06:29:44.615Z,98158.64
2024-02-02T06:32:12.507Z,98162.14
2024-02-02T06:34:40.350Z,98160.56
2024-02-02T06:37:08.419Z,98158.24
2024-02-02T06:39:36.484Z,98144.01
2024-02-02T06:42:05.179Z,98139.78
2024-02-02T06:44:33.547Z,98130.25
2024-02-02T06:47:01.528Z,98136.86
2024-02-02T06:49:29.519Z,98136.11
2024-02-02T06:51:57.650Z,98150.38
2024-02-02T06:54:25.525Z,98154.39
2024-02-02T06:56:53.638Z,98159.73
2024-02-02T06:59:22.317Z,98165.30
2024-02-02T07:01:50.781Z,98171.17
2024-02-02T07:04:19.266Z,98173.56
2024-02-02T07:06:47.676Z,98179.66
2024-02-02T07:09:34.625Z,98179.66
2024-02-02T07:12:11.028Z,98187.10
2024-02-02T07:14:50.723Z,98209.87
2024-02-02T07:17:40.472Z,98218.30
2024-02-02T07:20:29.214Z,98218.56
2024-02-02T07:23:07.603Z,98223.31
2024-02-02T07:25:41.162Z,98239.15
2024-02-02T07:28:29.602Z,98238.88
2024-02-02T07:30:58.595Z,98238.10
2024-02-02T07:33:42.679Z,98242.07
2024-02-02T07:36:28.678Z,98237.58
2024-02-02T07:38:57.581Z,98232.28
2024-02-02T07:41:27.902Z,98240.55
2024-02-02T07:44:01.093Z,98238.75
2024-02-02T07:46:29.560Z,98231.19
2024-02-02T07:48:57.679Z,98240.77
2024-02-02T07:51:27.407Z,98233.16
2024-02-02T07:53:55.664Z,98230.03
2024-02-02T07:56:24.983Z,98235.92
2024-02-02T07:58:53.071Z,98233.59
2024-02-02T08:01:20.994Z,98242.66
2024-02-02T08:03:48.914Z,98241.91
2024-02-02T08:06:16.864Z,98241.66
2024-02-02T08:08:44.887Z,98242.48
2024-02-02T08:11:13.074Z,98242.23
2024-02-02T08:13:43.096Z,98244.12
2024-02-02T08:16:11.107Z,98239.14
2024-02-02T08:18:39.261Z,98245.27
2024-02-02T08:21:07.885Z,98249.81
2024-02-02T08:23:36.347Z,98248.76
2024-02-02T08:26:04.633Z,98252.25
2024-02-02T08:28:42.074Z,98253.09
2024-02-02T08:31:04.146Z,98255.27
2024-02-02T08:33:32.111Z,98259.52
2024-02-02T08:36:00.225Z,98263.28
2024-02-02T08:38:28.155Z,98267.08
2024-02-02T08:40:55.990Z,98264.65
2024-02-02T08:43:25.821Z,98264.92
2024-02-02T08:46:11.567Z,98265.50
2024-02-02T08:48:42.038Z,98276.67
2024-02-02T08:51:47.673Z,98276.45
2024-02-02T08:54:36.732Z,98273.03
2024-02-02T08:57:30.676Z,98273.39
2024-02-02T09:00:16.010Z,98267.12
2024-02-02T09:03:05.851Z,98265.63
2024-02-02T09:05:53.334Z,98259.32
2024-02-02T09:08:35.977Z,98272.39
2024-02-02T09:11:22.477Z,98273.46
2024-02-02T09:13:55.679Z,98282.52
2024-02-02T09:16:26.353Z,98279.34
2024-02-02T09:18:57.884Z,98278.33
2024-02-02T09:21:35.897Z,98286.82
2024-02-02T09:24:05.566Z,98284.70
2024-02-02T09:26:41.440Z,98282.61
2024-02-02T09:29:11.112Z,98286.28
2024-02-02T09:31:39.554Z,98290.00
2024-02-02T09:34:11.213Z,98288.67
2024-02-02T09:36:40.155Z,98290.00
2024-02-02T09:39:29.749Z,98293.14
2024-02-02T09:42:31.802Z,98289.16
2024-02-02T09:45:20.259Z,98292.87
2024-02-02T09:48:02.984Z,98288.05
2024-02-02T09:51:12.761Z,98288.31
2024-02-02T09:53:45.985Z,98288.31
2024-02-02T09:56:33.210Z,98290.66
2024-02-02T09:59:10.964Z,98293.56
2024-02-02T10:01:50.240Z,98291.14
2024-02-02T10:04:48.511Z,98290.64
2024-02-02T10:07:46.024Z,98291.45
2024-02-02T10:10:31.432Z,98293.56
2024-02-02T10:13:26.004Z,98290.91
2024-02-02T10:16:32.722Z,98288.53
2024-02-02T10:19:18.526Z,98281.91
2024-02-02T10:22:04.671Z,98285.92
2024-02-02T10:25:09.878Z,98284.91
2024-02-02T10:27:54.057Z,98285.19
2024-02-02T10:30:56.970Z,98281.30
2024-02-02T10:34:03.753Z,98285.10
2024-02-02T10:37:05.407Z,98283.06
2024-02-02T10:39:58.217Z,98290.27
2024-02-02T10:42:34.743Z,98284.20
2024-02-02T10:45:14.195Z,98284.66
2024-02-02T10:48:08.821Z,98281.61
2024-02-02T10:51:02.695Z,98287.13
2024-02-02T10:54:10.806Z,98284.17
2024-02-02T10:57:05.083Z,98286.23
2024-02-02T10:59:44.400Z,98284.07
2024-02-02T11:02:47.242Z,98283.00
2024-02-02T11:05:29.221Z,98278.72
2024-02-02T11:08:03.341Z,98276.91
2024-02-02T11:10:39.733Z,98265.55
2024-02-02T11:13:32.910Z,98265.59
2024-02-02T11:16:36.564Z,98266.97
2024-02-02T11:19:30.046Z,98260.95
2024-02-02T11:22:26.682Z,98272.72
2024-02-02T11:25:24.571Z,98263.48
2024-02-02T11:28:21.981Z,98262.23
2024-02-02T11:30:58.547Z,98259.05
2024-02-02T11:33:32.034Z,98254.54
2024-02-02T11:36:39.170Z,98255.86
2024-02-02T11:39:31.055Z,98260.11
2024-02-02T11:42:00.897Z,98262.27
2024-02-02T11:44:30.778Z,98267.88
2024-02-02T11:47:00.848Z,98271.86
2024-02-02T11:49:31.692Z,98269.48
2024-02-02T11:52:06.856Z,98273.19
2024-02-02T11:54:50.681Z,98273.98
2024-02-02T11:57:22.766Z,98279.56
2024-02-02T11:59:54.741Z,98279.83
2024-02-02T12:03:01.816Z,98280.58
2024-02-02T12:05:35.103Z,98277.63
2024-02-02T12:08:20.929Z,98272.05
2024-02-02T12:10:49.472Z,98262.23
2024-02-02T12:13:22.098Z,98261.44
2024-02-02T12:15:52.052Z,98260.63
2024-02-02T12:18:21.139Z,98264.88
2024-02-02T12:20:49.144Z,98263.30
2024-02-02T12:23:17.224Z,98254.80
2024-02-02T12:25:45.361Z,98258.83
2024-02-02T12:28:13.236Z,98254.05
2024-02-02T12:30:41.704Z,98249.01
2024-02-02T12:33:09.961Z,98254.35
2024-02-02T12:35:38.537Z,98252.53
2024-02-02T12:38:06.948Z,98248.29
2024-02-02T12:40:35.837Z,98253.67
2024-02-02T12:43:04.114Z,98248.63
2024-02-02T12:45:33.759Z,98249.20
2024-02-02T12:48:01.763Z,98256.90
2024-02-02T12:50:29.875Z,98251.09
2024-02-02T12:52:59.002Z,98250.83
2024-02-02T12:55:29.735Z,98236.77
2024-02-02T12:57:58.136Z,98238.13
2024-02-02T13:00:27.300Z,98248.25
2024-02-02T13:02:56.379Z,98245.33
2024-02-02T13:05:26.534Z,98239.80
2024-02-02T13:07:54.372Z,98244.61
2024-02-02T13:10:49.719Z,98243.31
2024-02-02T13:13:25.740Z,98242.78
2024-02-02T13:15:56.340Z,98245.73
2024-02-02T13:18:34.013Z,98246.03
2024-02-02T13:21:29.994Z,98245.24
2024-02-02T13:24:00.598Z,98259.88
2024-02-02T13:26:39.088Z,98259.91
2024-02-02T13:29:08.670Z,98259.38
2024-02-02T13:31:37.719Z,98262.57
2024-02-02T13:34:06.074Z,98258.82
2024-02-02T13:36:36.293Z,98261.20
2024-02-02T13:39:04.744Z,98260.94
2024-02-02T13:41:34.583Z,98251.88
2024-02-02T13:44:08.362Z,98253.77
2024-02-02T13:46:47.794Z,98247.40
2024-02-02T13:49:28.457Z,98250.05
2024-02-02T13:51:57.014Z,98250.85
2024-02-02T13:54:25.486Z,98254.30
2024-02-02T13:56:53.404Z,98250.05
2024-02-02T13:59:21.485Z,98246.34
2024-02-02T14:01:51.400Z,98243.41
2024-02-02T14:04:26.585Z,98241.83
2024-02-02T14:06:54.794Z,98233.89
2024-02-02T14:09:23.879Z,98236.58
2024-02-02T14:12:01.365Z,98238.44
2024-02-02T14:14:29.797Z,98241.63
2024-02-02T14:17:05.761Z,98241.63
2024-02-02T14:19:34.635Z,98238.17
2024-02-02T14:22:12.870Z,98229.94
2024-02-02T14:24:52.077Z,98231.77
2024-02-02T14:27:20.289Z,98241.02
2024-02-02T14:29:48.339Z,98232.76
2024-02-02T14:32:37.777Z,98233.55
2024-02-02T14:35:10.914Z,98233.25
2024-02-02T14:37:39.277Z,98230.80
2024-02-02T14:40:10.217Z,98231.03
2024-02-02T14:42:38.360Z,98230.77
2024-02-02T14:45:06.949Z,98232.36
2024-02-02T14:47:35.373Z,98225.69
2024-02-02T14:50:03.369Z,98223.98
2024-02-02T14:52:31.338Z,98225.47
2024-02-02T14:54:59.813Z,98224.55
2024-02-02T14:57:28.976Z,98228.16
2024-02-02T14:59:59.887Z,98222.22
2024-02-02T15:02:28.262Z,98223.42
2024-02-02T15:05:00.736Z,98219.05
2024-02-02T15:07:27.314Z,98230.16
2024-02-02T15:09:55.658Z,98230.89
2024-02-02T15:12:29.289Z,98233.72
2024-02-02T15:14:57.535Z,98234.42
2024-02-02T15:17:26.272Z,98238.83
2024-02-02T15:19:55.533Z,98237.94
2024-02-02T15:22:23.644Z,98243.17
2024-02-02T15:24:51.570Z,98233.54
2024-02-02T15:27:21.837Z,98231.85
2024-02-02T15:29:50.705Z,98235.23
2024-02-02T15:32:20.829Z,98238.09
2024-02-02T15:34:49.016Z,98241.97
2024-02-02T15:37:18.155Z,98246.41
2024-02-02T15:39:46.572Z,98251.60
2024-02-02T15:42:14.455Z,98258.69
2024-02-02T15:44:42.406Z,98263.61
2024-02-02T15:47:11.347Z,98260.58
2024-02-02T15:49:41.319Z,98266.33
2024-02-02T15:52:09.259Z,98264.68
2024-02-02T15:54:37.927Z,98257.73
2024-02-02T15:57:08.353Z,98262.70
2024-02-02T15:59:37.755Z,98258.68
2024-02-02T16:02:08.706Z,98261.27
2024-02-02T16:04:37.544Z,98264.97
2024-02-02T16:07:06.326Z,98256.17
2024-02-02T16:09:39.796Z,98262.71
2024-02-02T16:12:13.511Z,98264.50
2024-02-02T16:14:45.016Z,98261.75
2024-02-02T16:17:13.606Z,98257.70
2024-02-02T16:19:41.798Z,98266.11
2024-02-02T16:22:10.276Z,98270.54
2024-02-02T16:24:39.307Z,98270.79
2024-02-02T16:27:07.732Z,98275.50
2024-02-02T16:29:39.761Z,98271.80
2024-02-02T16:32:10.089Z,98272.61
2024-02-02T16:34:38.718Z,98279.22
2024-02-02T16:37:06.693Z,98281.86
2024-02-02T16:39:34.976Z,98283.71
2024-02-02T16:42:03.603Z,98286.87
2024-02-02T16:44:31.491Z,98287.93
2024-02-02T16:47:01.376Z,98285.03
2024-02-02T16:49:30.572Z,98291.13
2024-02-02T16:51:58.575Z,98291.09
2024-02-02T16:54:26.820Z,98285.75
2024-02-02T16:56:54.707Z,98279.38
2024-02-02T16:59:23.981Z,98289.33
2024-02-02T17:01:56.755Z,98292.95
2024-02-02T17:04:24.912Z,98290.77
2024-02-02T17:06:57.322Z,98296.86
2024-02-02T17:09:25.757Z,98292.62
2024-02-02T17:11:53.560Z,98293.66
2024-02-02T17:14:21.950Z,98292.34
2024-02-02T17:16:50.041Z,98293.94
2024-02-02T17:19:18.009Z,98298.70
2024-02-02T17:21:48.918Z,98303.78
2024-02-02T17:24:18.697Z,98303.02
2024-02-02T17:26:48.447Z,98304.06
2024-02-02T17:29:18.260Z,98295.32
2024-02-02T17:31:48.010Z,98301.14
2024-02-02T17:34:21.257Z,98299.02
2024-02-02T17:36:52.367Z,98293.73
2024-02-02T17:39:20.713Z,98300.09
2024-02-02T17:44:44.769Z,98298.49
2024-02-02T17:47:13.524Z,98296.06
2024-02-02T17:49:45.541Z,98297.39
2024-02-02T17:52:13.031Z,98295.78
2024-02-02T17:54:41.463Z,98291.30
2024-02-02T17:57:09.544Z,98291.55
2024-02-02T17:59:38.406Z,98286.25
2024-02-02T18:02:08.876Z,98287.85
2024-02-02T18:04:36.872Z,98285.48
2024-02-02T18:07:05.404Z,98278.59
2024-02-02T18:09:33.808Z,98276.22
2024-02-02T18:12:03.684Z,98273.58
2024-02-02T18:14:32.790Z,98271.52
2024-02-02T18:17:01.968Z,98267.27
2024-02-02T18:19:45.858Z,98269.09
2024-02-02T18:22:14.377Z,98268.54
2024-02-02T18:24:44.214Z,98273.77
2024-02-02T18:27:12.631Z,98264.23
2024-02-02T18:29:41.272Z,98270.27
2024-02-02T18:32:14.616Z,98265.50
2024-02-02T18:34:44.462Z,98264.12
2024-02-02T18:37:14.164Z,98260.67
2024-02-02T18:39:42.664Z,98256.95
2024-02-02T18:42:11.870Z,98253.52
2024-02-02T18:44:39.793Z,98253.79
2024-02-02T18:47:08.109Z,98251.66
2024-02-02T18:49:36.175Z,98258.28
2024-02-02T18:52:06.579Z,98254.83
2024-02-02T18:54:38.988Z,98252.66
2024-02-02T18:57:07.476Z,98255.30
2024-02-02T18:59:40.820Z,98254.96
2024-02-02T19:02:13.199Z,98246.97
2024-02-02T19:04:42.729Z,98250.88
2024-02-02T19:09:39.624Z,98230.16
2024-02-02T19:12:07.821Z,98251.64
2024-02-02T19:14:35.759Z,98246.11
2024-02-02T19:17:04.409Z,98250.32
2024-02-02T19:19:32.681Z,98247.09
2024-02-02T19:22:02.938Z,98247.55
2024-02-02T19:24:31.112Z,98245.44
2024-02-02T19:26:59.158Z,98241.99
2024-02-02T19:29:27.156Z,98241.72
2024-02-02T19:31:57.596Z,98241.93
2024-02-02T19:34:25.744Z,98230.80
2024-02-02T19:36:54.091Z,98236.09
2024-02-02T19:39:22.549Z,98234.19
2024-02-02T19:41:51.104Z,98238.15
2024-02-02T19:44:19.232Z,98227.02
2024-02-02T19:46:49.222Z,98225.64
2024-02-02T19:49:19.737Z,98233.30
2024-02-02T19:51:54.067Z,98230.34
2024-02-02T19:54:26.485Z,98225.83
2024-02-02T19:56:55.700Z,98229.79
2024-02-02T19:59:24.782Z,98222.38
2024-02-02T20:01:55.073Z,98219.22
2024-02-02T20:04:25.851Z,98217.92
2024-02-02T20:07:12.124Z,98225.64
2024-02-02T20:09:40.735Z,98220.36
2024-02-02T20:12:09.623Z,98213.75
2024-02-02T20:14:37.604Z,98223.80
2024-02-02T20:17:06.270Z,98214.02
2024-02-02T20:19:34.179Z,98218.27
2024-02-02T20:22:02.386Z,98213.50
2024-02-02T20:24:32.279Z,98211.17
2024-02-02T20:27:02.052Z,98208.03
2024-02-02T20:29:30.154Z,98211.78
2024-02-02T20:31:59.428Z,98207.34
2024-02-02T20:34:32.590Z,98200.22
2024-02-02T20:37:04.255Z,98206.83
2024-02-02T20:39:36.725Z,98207.91
2024-02-02T20:42:05.626Z,98211.13
2024-02-02T20:44:37.901Z,98206.91
2024-02-02T20:47:07.698Z,98204.05
2024-02-02T20:49:35.904Z,98204.61
2024-02-02T20:52:04.593Z,98202.80
2024-02-02T20:54:33.381Z,98199.10
2024-02-02T20:57:01.553Z,98202.80
2024-02-02T20:59:30.257Z,98195.60
2024-02-02T21:02:03.971Z,98189.98
2024-02-02T21:04:32.945Z,98191.48
2024-02-02T21:07:09.494Z,98194.07
2024-02-02T21:09:39.416Z,98192.75
2024-02-02T21:12:12.478Z,98198.84
2024-02-02T21:14:42.637Z,98196.99
2024-02-02T21:17:11.049Z,98188.54
2024-02-02T21:19:40.497Z,98183.78
2024-02-02T21:22:08.404Z,98181.44
2024-02-02T21:24:36.417Z,98176.64
2024-02-02T21:27:07.626Z,98177.75
2024-02-02T21:29:35.422Z,98175.62
2024-02-02T21:32:05.883Z,98168.16
2024-02-02T21:34:34.028Z,98169.70
2024-02-02T21:37:02.070Z,98169.95
2024-02-02T21:39:30.232Z,98164.66
2024-02-02T21:41:58.405Z,98160.45
2024-02-02T21:44:26.522Z,98157.01
2024-02-02T21:46:54.670Z,98152.25
2024-02-02T21:49:22.863Z,98151.72
2024-02-02T21:51:51.171Z,98153.84
2024-02-02T21:54:18.996Z,98157.59
2024-02-02T21:56:49.436Z,98161.61
2024-02-02T21:59:22.057Z,98152.64
2024-02-02T22:01:50.246Z,98150.21
2024-02-02T22:04:26.730Z,98149.14
2024-02-02T22:06:54.692Z,98150.45
2024-02-02T22:09:28.586Z,98148.86
2024-02-02T22:11:56.653Z,98161.83
2024-02-02T22:14:27.944Z,98160.78
2024-02-02T22:16:55.923Z,98161.09
2024-02-02T22:19:38.044Z,98160.84
2024-02-02T22:22:06.429Z,98154.51
2024-02-02T22:24:41.762Z,98156.66
2024-02-02T22:27:11.667Z,98150.55
2024-02-02T22:29:41.076Z,98150.59
2024-02-02T22:32:08.931Z,98152.50
2024-02-02T22:34:36.876Z,98150.66
2024-02-02T22:37:05.356Z,98142.48
2024-02-02T22:39:33.271Z,98136.20
2024-02-02T22:42:01.139Z,98136.25
2024-02-02T22:44:29.142Z,98145.78
2024-02-02T22:46:57.187Z,98140.80
2024-02-02T22:49:25.423Z,98132.61
2024-02-02T22:51:53.433Z,98116.48
2024-02-02T22:54:21.598Z,98113.83
2024-02-02T22:56:50.204Z,98113.36
2024-02-02T22:59:18.144Z,98107.03
2024-02-02T23:01:46.031Z,98109.94
2024-02-02T23:04:14.137Z,98101.48
2024-02-02T23:06:42.323Z,98089.36
2024-02-02T23:09:12.310Z,98089.91
2024-02-02T23:11:40.449Z,98086.47
2024-02-02T23:14:08.299Z,98086.47
2024-02-02T23:16:36.226Z,98085.72
2024-02-02T23:19:06.074Z,98083.35
2024-02-02T23:21:37.474Z,98082.03
2024-02-02T23:24:06.286Z,98086.52
2024-02-02T23:26:36.143Z,98074.88
2024-02-02T23:29:05.073Z,98073.55
2024-02-02T23:31:33.299Z,98073.02
2024-02-02T23:34:01.290Z,98062.45
2024-02-02T23:36:29.179Z,98058.17
2024-02-02T23:38:57.313Z,98062.14
2024-02-02T23:41:25.257Z,98067.21
2024-02-02T23:43:53.096Z,98062.99
2024-02-02T23:46:20.963Z,98067.76
2024-02-02T23:48:50.096Z,98072.83
2024-02-02T23:51:18.019Z,98069.38
2024-02-02T23:53:46.113Z,98060.65
2024-02-02T23:56:14.232Z,98066.73
2024-02-02T23:58:43.521Z,98070.70
